Time;durP1;ratioP1;P1;durP2;ratioP2;P2;SDS_P1;SDS_P2;PMS_P1;PMS_P2;Temp;Humidity;BMP_temperature;BMP_pressure;BME280_temperature;BME280_humidity;BME280_pressure;Samples;Min_cycle;Max_cycle;Signal;HPM_P1;HPM_P2
2023/06/28 00:00:18;;;;;;;;;;;;;;;;;;5080562;28;4532;-69
2023/06/28 00:02:45;;;;;;;;;;;;;;;;;;5075256;28;5204;-69
2023/06/28 00:05:10;;;;;;;;;;;;;;;;;;5086291;28;3303;-69
2023/06/28 00:07:36;;;;;;;;;;;;;;;;;;5082091;28;4948;-69
2023/06/28 00:10:01;;;;;;;;;;;;;;;;;;5065706;28;5010;-70
2023/06/28 00:12:27;;;;;;;;;;;;;;;;;;5069240;28;5120;-70
2023/06/28 00:14:53;;;;;;;;;;;;;;;;;;5066431;28;5239;-69
2023/06/28 00:17:19;;;;;;;;;;;;;;;;;;5072662;28;4554;-70
2023/06/28 00:19:47;;;;;;;;;;;;;;;;;;5073092;28;3285;-68
2023/06/28 00:22:15;;;;;;;;;;;;;;;;;;5082443;28;4660;-69
2023/06/28 00:24:41;;;;;;;;;;;;;;;;;;5084993;28;5064;-68
2023/06/28 00:27:06;;;;;;;;;;;;;;;;;;5083668;28;5141;-69
2023/06/28 00:29:31;;;;;;;;;;;;;;;;;;5080936;28;5037;-69
2023/06/28 00:31:56;;;;;;;;;;;;;;;;;;5083045;28;3178;-69
2023/06/28 00:34:22;;;;;;;;;;;;;;;;;;5082627;28;4981;-69
2023/06/28 00:36:47;;;;;;;;;;;;;;;;;;5085932;28;4612;-68
2023/06/28 00:39:12;;;;;;;;;;;;;;;;;;5083784;28;5223;-69
2023/06/28 00:41:37;;;;;;;;;;;;;;;;;;5069686;28;4900;-69
2023/06/28 00:44:03;;;;;;;;;;;;;;;;;;5084173;28;3079;-68
2023/06/28 00:46:29;;;;;;;;;;;;;;;;;;5053177;28;4672;-70
2023/06/28 00:48:54;;;;;;;;;;;;;;;;;;5078878;28;5133;-69
2023/06/28 00:51:19;;;;;;;;;;;;;;;;;;5082848;28;4647;-68
2023/06/28 00:53:44;;;;;;;;;;;;;;;;;;5081395;28;5148;-69
2023/06/28 00:56:10;;;;;;;;;;;;;;;;;;5090252;28;3240;-69
2023/06/28 00:58:35;;;;;;;;;;;;;;;;;;5074266;28;4444;-67
2023/06/28 01:01:00;;;;;;;;;;;;;;;;;;5072964;28;4472;-69
2023/06/28 01:03:26;;;;;;;;;;;;;;;;;;5080393;28;4509;-69
2023/06/28 01:05:52;;;;;;;;;;;;;;;;;;5081811;28;5271;-69
2023/06/28 01:08:17;;;;;;;;;;;;;;;;;;5065991;28;4690;-69
2023/06/28 01:10:43;;;;;;;;;;;;;;;;;;5077605;28;3012;-69
2023/06/28 01:13:08;;;;;;;;;;;;;;;;;;5068840;28;4826;-69
2023/06/28 01:15:33;;;;;;;;;;;;;;;;;;5069031;28;5007;-69
2023/06/28 01:18:00;;;;;;;;;;;;;;;;;;5085734;28;4999;-69
2023/06/28 01:20:26;;;;;;;;;;;;;;;;;;5087494;28;4605;-69
2023/06/28 01:22:55;;;;;;;;;;;;;;;;;;5068500;28;2451;-72
2023/06/28 01:25:20;;;;;;;;;;;;;;;;;;5079172;28;5019;-70
2023/06/28 01:27:46;;;;;;;;;;;;;;;;;;5060539;28;5543;-70
2023/06/28 01:30:14;;;;;;;;;;;;;;;;;;5075390;28;5108;-70
2023/06/28 01:32:39;;;;;;;;;;;;;;;;;;5071117;28;5092;-69
2023/06/28 01:35:05;;;;;;;;;;;;;;;;;;5077010;28;3213;-70
2023/06/28 01:37:30;;;;;;;;;;;;;;;;;;5085012;28;5001;-70
2023/06/28 01:39:56;;;;;;;;;;;;;;;;;;5055190;28;5031;-69
2023/06/28 01:42:21;;;;;;;;;;;;;;;;;;5084708;28;5120;-70
2023/06/28 01:44:46;;;;;;;;;;;;;;;;;;5079445;28;4465;-68
2023/06/28 01:47:12;;;;;;;;;;;;;;;;;;5099197;27;3186;-68
2023/06/28 01:49:38;;;;;;;;;;;;;;;;;;5085826;28;4804;-68
2023/06/28 01:52:03;;;;;;;;;;;;;;;;;;5087160;28;5523;-68
2023/06/28 01:54:29;;;;;;;;;;;;;;;;;;5080939;28;5053;-68
2023/06/28 01:56:54;;;;;;;;;;;;;;;;;;5060114;28;5074;-69
2023/06/28 01:59:19;;;;;;;;;;;;;;;;;;5079971;28;5009;-69
2023/06/28 02:01:44;;;;;;;;;;;;;;;;;;5083725;28;3254;-68
2023/06/28 02:04:10;;;;;;;;;;;;;;;;;;5093961;28;5149;-68
2023/06/28 02:06:38;;;;;;;;;;;;;;;;;;5086195;28;5030;-68
2023/06/28 02:09:03;;;;;;;;;;;;;;;;;;5070251;28;5080;-68
2023/06/28 02:11:29;;;;;;;;;;;;;;;;;;5079423;28;5170;-69
2023/06/28 02:13:54;;;;;;;;;;;;;;;;;;5085045;28;3430;-68
2023/06/28 02:16:22;;;;;;;;;;;;;;;;;;5065736;28;4861;-68
2023/06/28 02:18:49;;;;;;;;;;;;;;;;;;5087669;28;5050;-67
2023/06/28 02:21:14;;;;;;;;;;;;;;;;;;5081764;28;5086;-67
2023/06/28 02:23:40;;;;;;;;;;;;;;;;;;5091759;28;4981;-67
2023/06/28 02:26:05;;;;;;;;;;;;;;;;;;5079892;28;4930;-67
2023/06/28 02:28:30;;;;;;;;;;;;;;;;;;5065125;28;5016;-67
2023/06/28 02:30:56;;;;;;;;;;;;;;;;;;5079992;28;4474;-67
2023/06/28 02:33:21;;;;;;;;;;;;;;;;;;5083393;28;5069;-67
2023/06/28 02:35:46;;;;;;;;;;;;;;;;;;5085062;28;4936;-67
2023/06/28 02:38:11;;;;;;;;;;;;;;;;;;5090604;28;3179;-67
2023/06/28 02:40:37;;;;;;;;;;;;;;;;;;5086927;28;4854;-68
2023/06/28 02:43:02;;;;;;;;;;;;;;;;;;5091894;28;5029;-67
2023/06/28 02:45:27;;;;;;;;;;;;;;;;;;5093938;28;4666;-67
2023/06/28 02:47:52;;;;;;;;;;;;;;;;;;5066952;28;5021;-68
2023/06/28 02:50:18;;;;;;;;;;;;;;;;;;5065741;28;5054;-67
2023/06/28 02:52:43;;;;;;;;;;;;;;;;;;5064916;28;3200;-68
2023/06/28 02:55:09;;;;;;;;;;;;;;;;;;5058237;28;5754;-68
2023/06/28 02:57:34;;;;;;;;;;;;;;;;;;5063867;28;5007;-67
2023/06/28 03:00:00;;;;;;;;;;;;;;;;;;5061765;28;5113;-67
2023/06/28 03:02:25;;;;;;;;;;;;;;;;;;5063347;28;5084;-68
2023/06/28 03:04:50;;;;;;;;;;;;;;;;;;5067528;28;3302;-68
2023/06/28 03:07:16;;;;;;;;;;;;;;;;;;5066290;28;4842;-67
2023/06/28 03:09:41;;;;;;;;;;;;;;;;;;5063877;28;5026;-67
2023/06/28 03:12:07;;;;;;;;;;;;;;;;;;5057407;28;5088;-67
2023/06/28 03:14:33;;;;;;;;;;;;;;;;;;5062459;28;4944;-65
2023/06/28 03:16:58;;;;;;;;;;;;;;;;;;5066976;28;3251;-67
2023/06/28 03:19:23;;;;;;;;;;;;;;;;;;5067522;28;5029;-67
2023/06/28 03:21:48;;;;;;;;;;;;;;;;;;5057587;28;4877;-68
2023/06/28 03:24:14;;;;;;;;;;;;;;;;;;5065789;28;4516;-68
2023/06/28 03:26:39;;;;;;;;;;;;;;;;;;5070353;28;5022;-68
2023/06/28 03:29:04;;;;;;;;;;;;;;;;;;5043571;28;3170;-65
2023/06/28 03:31:31;;;;;;;;;;;;;;;;;;5060531;28;5138;-68
2023/06/28 03:33:56;;;;;;;;;;;;;;;;;;5066868;28;4607;-66
2023/06/28 03:36:23;;;;;;;;;;;;;;;;;;5064755;28;5052;-67
2023/06/28 03:38:48;;;;;;;;;;;;;;;;;;5069263;28;4545;-68
2023/06/28 03:41:14;;;;;;;;;;;;;;;;;;5063769;28;5102;-65
2023/06/28 03:43:39;;;;;;;;;;;;;;;;;;5064441;28;3539;-67
2023/06/28 03:46:05;;;;;;;;;;;;;;;;;;5064548;28;4908;-66
2023/06/28 03:48:30;;;;;;;;;;;;;;;;;;5053882;28;5159;-68
2023/06/28 03:50:55;;;;;;;;;;;;;;;;;;5070542;28;5174;-68
2023/06/28 03:53:20;;;;;;;;;;;;;;;;;;5068994;28;4541;-67
2023/06/28 03:55:46;;;;;;;;;;;;;;;;;;5068865;28;3183;-68
2023/06/28 03:58:11;;;;;;;;;;;;;;;;;;5064193;28;5092;-69
2023/06/28 04:00:36;;;;;;;;;;;;;;;;;;5063819;28;4406;-68
2023/06/28 04:03:02;;;;;;;;;;;;;;;;;;5056031;28;4680;-68
2023/06/28 04:05:27;;;;;;;;;;;;;;;;;;5064708;28;5074;-69
2023/06/28 04:07:57;;;;;;;;;;;;;;;;;;5060589;28;1158;-68
2023/06/28 04:10:22;;;;;;;;;;;;;;;;;;5065206;28;4942;-69
2023/06/28 04:12:48;;;;;;;;;;;;;;;;;;5071397;28;4457;-67
2023/06/28 04:15:13;;;;;;;;;;;;;;;;;;5058992;28;4949;-69
2023/06/28 04:17:38;;;;;;;;;;;;;;;;;;5050337;28;5097;-68
2023/06/28 04:20:07;;;;;;;;;;;;;;;;;;5074511;28;1291;-68
2023/06/28 04:22:32;;;;;;;;;;;;;;;;;;5068004;28;4414;-67
2023/06/28 04:24:58;;;;;;;;;;;;;;;;;;5076989;28;4645;-68
2023/06/28 04:27:23;;;;;;;;;;;;;;;;;;5072909;28;5255;-69
2023/06/28 04:29:48;;;;;;;;;;;;;;;;;;5052725;28;5145;-68
2023/06/28 04:32:21;;;;;;;;;;;;;;;;;;5059057;28;5304;-66
2023/06/28 04:34:49;;;;;;;;;;;;;;;;;;5068801;28;3201;-68
2023/06/28 04:37:15;;;;;;;;;;;;;;;;;;5053999;28;5015;-68
2023/06/28 04:39:40;;;;;;;;;;;;;;;;;;5065210;28;4833;-67
2023/06/28 04:42:05;;;;;;;;;;;;;;;;;;5054393;28;4885;-67
2023/06/28 04:44:34;;;;;;;;;;;;;;;;;;5062199;28;5064;-68
2023/06/28 04:46:59;;;;;;;;;;;;;;;;;;5052224;28;3225;-69
2023/06/28 04:49:24;;;;;;;;;;;;;;;;;;5085034;28;4949;-68
2023/06/28 04:51:49;;;;;;;;;;;;;;;;;;5080056;28;4922;-68
2023/06/28 04:54:15;;;;;;;;;;;;;;;;;;5076884;28;4530;-67
2023/06/28 04:56:44;;;;;;;;;;;;;;;;;;5069186;28;5082;-68
2023/06/28 04:59:09;;;;;;;;;;;;;;;;;;5074270;28;3163;-68
2023/06/28 05:01:35;;;;;;;;;;;;;;;;;;5074258;28;4914;-69
2023/06/28 05:04:00;;;;;;;;;;;;;;;;;;5074672;28;5103;-69
2023/06/28 05:06:28;;;;;;;;;;;;;;;;;;5083347;28;5073;-68
2023/06/28 05:08:53;;;;;;;;;;;;;;;;;;5065633;28;4695;-67
2023/06/28 05:11:19;;;;;;;;;;;;;;;;;;5074106;28;5024;-68
2023/06/28 05:13:44;;;;;;;;;;;;;;;;;;5082338;28;3124;-68
2023/06/28 05:16:09;;;;;;;;;;;;;;;;;;5071992;28;4735;-67
2023/06/28 05:18:34;;;;;;;;;;;;;;;;;;5084628;28;4438;-67
2023/06/28 05:21:00;;;;;;;;;;;;;;;;;;5077784;28;5077;-68
2023/06/28 05:23:25;;;;;;;;;;;;;;;;;;5080202;28;4627;-68
2023/06/28 05:25:50;;;;;;;;;;;;;;;;;;5080727;28;4886;-68
2023/06/28 05:28:16;;;;;;;;;;;;;;;;;;5064903;28;4482;-68
2023/06/28 05:30:41;;;;;;;;;;;;;;;;;;5080405;28;5251;-71
2023/06/28 05:33:07;;;;;;;;;;;;;;;;;;5081452;28;5061;-68
2023/06/28 05:35:32;;;;;;;;;;;;;;;;;;5076273;28;4955;-67
2023/06/28 05:38:01;;;;;;;;;;;;;;;;;;5072622;28;3249;-70
2023/06/28 05:40:27;;;;;;;;;;;;;;;;;;5073020;28;5012;-69
2023/06/28 05:42:53;;;;;;;;;;;;;;;;;;5075806;28;4959;-68
2023/06/28 05:45:19;;;;;;;;;;;;;;;;;;5085448;28;4904;-69
2023/06/28 05:47:44;;;;;;;;;;;;;;;;;;5065650;28;4558;-74
2023/06/28 05:50:10;;;;;;;;;;;;;;;;;;5060132;28;3408;-68
2023/06/28 05:52:35;;;;;;;;;;;;;;;;;;5072690;28;4958;-67
2023/06/28 05:55:01;;;;;;;;;;;;;;;;;;5073011;28;4653;-68
2023/06/28 05:57:26;;;;;;;;;;;;;;;;;;5082698;28;4562;-68
2023/06/28 05:59:51;;;;;;;;;;;;;;;;;;5067335;28;4408;-67
2023/06/28 06:02:16;;;;;;;;;;;;;;;;;;5075992;28;4912;-67
2023/06/28 06:04:42;;;;;;;;;;;;;;;;;;5079601;28;3417;-67
2023/06/28 06:07:07;;;;;;;;;;;;;;;;;;5082015;28;4511;-66
2023/06/28 06:09:32;;;;;;;;;;;;;;;;;;5079692;28;5100;-68
2023/06/28 06:11:58;;;;;;;;;;;;;;;;;;5081489;28;4548;-68
2023/06/28 06:14:23;;;;;;;;;;;;;;;;;;5079777;28;4482;-68
2023/06/28 06:16:48;;;;;;;;;;;;;;;;;;5080497;28;3199;-68
2023/06/28 06:19:13;;;;;;;;;;;;;;;;;;5074254;28;4829;-67
2023/06/28 06:21:39;;;;;;;;;;;;;;;;;;5065675;28;4596;-67
2023/06/28 06:24:07;;;;;;;;;;;;;;;;;;5079206;28;5126;-67
2023/06/28 06:26:33;;;;;;;;;;;;;;;;;;5066195;28;5092;-67
2023/06/28 06:28:58;;;;;;;;;;;;;;;;;;5078176;28;1704;-68
2023/06/28 06:31:23;;;;;;;;;;;;;;;;;;5078363;28;5048;-68
2023/06/28 06:33:48;;;;;;;;;;;;;;;;;;5060114;28;5217;-69
2023/06/28 06:36:14;;;;;;;;;;;;;;;;;;5079930;28;4885;-69
2023/06/28 06:38:39;;;;;;;;;;;;;;;;;;5081234;28;4988;-73
2023/06/28 06:41:04;;;;;;;;;;;;;;;;;;5064653;28;3492;-73
2023/06/28 06:43:30;;;;;;;;;;;;;;;;;;5086452;28;4413;-73
2023/06/28 06:45:55;;;;;;;;;;;;;;;;;;5084800;28;4412;-73
2023/06/28 06:48:20;;;;;;;;;;;;;;;;;;5086309;28;4458;-72
2023/06/28 06:50:45;;;;;;;;;;;;;;;;;;5084132;28;5025;-72
2023/06/28 06:53:11;;;;;;;;;;;;;;;;;;5086940;28;1161;-72
2023/06/28 06:55:36;;;;;;;;;;;;;;;;;;5086734;28;4993;-72
2023/06/28 06:58:01;;;;;;;;;;;;;;;;;;5062008;28;5023;-72
2023/06/28 07:00:27;;;;;;;;;;;;;;;;;;5084348;28;5203;-72
2023/06/28 07:02:52;;;;;;;;;;;;;;;;;;5078245;28;4988;-71
2023/06/28 07:05:18;;;;;;;;;;;;;;;;;;5085686;28;5277;-71
2023/06/28 07:07:43;;;;;;;;;;;;;;;;;;5087834;28;1116;-71
2023/06/28 07:10:09;;;;;;;;;;;;;;;;;;5087553;28;4965;-71
2023/06/28 07:12:34;;;;;;;;;;;;;;;;;;5085528;28;5093;-73
2023/06/28 07:14:59;;;;;;;;;;;;;;;;;;5079928;28;5201;-71
2023/06/28 07:17:25;;;;;;;;;;;;;;;;;;5064797;28;4427;-71
2023/06/28 07:19:50;;;;;;;;;;;;;;;;;;5074045;28;1156;-72
2023/06/28 07:22:15;;;;;;;;;;;;;;;;;;5075271;28;5254;-72
2023/06/28 07:24:40;;;;;;;;;;;;;;;;;;5083921;28;5048;-73
2023/06/28 07:27:06;;;;;;;;;;;;;;;;;;5081867;28;5040;-72
2023/06/28 07:29:31;;;;;;;;;;;;;;;;;;5085078;28;4498;-72
2023/06/28 07:31:57;;;;;;;;;;;;;;;;;;5082040;28;1499;-72
2023/06/28 07:34:22;;;;;;;;;;;;;;;;;;5069729;28;4999;-72
2023/06/28 07:36:47;;;;;;;;;;;;;;;;;;5082693;28;5018;-72
2023/06/28 07:39:12;;;;;;;;;;;;;;;;;;5087220;28;4616;-73
2023/06/28 07:41:38;;;;;;;;;;;;;;;;;;5083852;28;5012;-73
2023/06/28 07:44:03;;;;;;;;;;;;;;;;;;5083605;28;1056;-72
2023/06/28 07:46:28;;;;;;;;;;;;;;;;;;5086101;28;4405;-73
2023/06/28 07:48:56;;;;;;;;;;;;;;;;;;5084302;28;5037;-72
2023/06/28 07:51:21;;;;;;;;;;;;;;;;;;5089752;28;5481;-71
2023/06/28 07:53:46;;;;;;;;;;;;;;;;;;5085717;28;5251;-72
2023/06/28 07:56:12;;;;;;;;;;;;;;;;;;5069780;28;2139;-72
2023/06/28 07:58:37;;;;;;;;;;;;;;;;;;5081392;28;4388;-73
2023/06/28 08:01:02;;;;;;;;;;;;;;;;;;5089012;28;5755;-71
2023/06/28 08:03:28;;;;;;;;;;;;;;;;;;5077077;28;5207;-71
2023/06/28 08:05:53;;;;;;;;;;;;;;;;;;5079020;28;4850;-71
2023/06/28 08:08:18;;;;;;;;;;;;;;;;;;5074907;28;4521;-71
2023/06/28 08:10:43;;;;;;;;;;;;;;;;;;5083166;28;1925;-71
2023/06/28 08:13:09;;;;;;;;;;;;;;;;;;5080917;28;5095;-70
2023/06/28 08:15:36;;;;;;;;;;;;;;;;;;5084411;28;5010;-72
2023/06/28 08:18:02;;;;;;;;;;;;;;;;;;5084357;28;5002;-78
2023/06/28 08:20:28;;;;;;;;;;;;;;;;;;5070400;28;4906;-66
2023/06/28 08:22:53;;;;;;;;;;;;;;;;;;5082653;28;1107;-65
2023/06/28 08:25:18;;;;;;;;;;;;;;;;;;5083453;28;4943;-63
2023/06/28 08:27:44;;;;;;;;;;;;;;;;;;5081428;28;5129;-65
2023/06/28 08:30:09;;;;;;;;;;;;;;;;;;5086031;28;5885;-67
2023/06/28 08:32:35;;;;;;;;;;;;;;;;;;5079059;28;5037;-66
2023/06/28 08:35:02;;;;;;;;;;;;;;;;;;5064664;28;3218;-64
2023/06/28 08:37:30;;;;;;;;;;;;;;;;;;5081666;28;4915;-63
2023/06/28 08:39:55;;;;;;;;;;;;;;;;;;5081012;28;4876;-70
2023/06/28 08:42:20;;;;;;;;;;;;;;;;;;5081473;28;4933;-70
2023/06/28 08:44:46;;;;;;;;;;;;;;;;;;5062490;28;5832;-72
2023/06/28 08:47:12;;;;;;;;;;;;;;;;;;5066909;28;2647;-69
2023/06/28 08:49:38;;;;;;;;;;;;;;;;;;5083064;28;4964;-70
2023/06/28 08:52:03;;;;;;;;;;;;;;;;;;5067969;28;4583;-70
2023/06/28 08:54:28;;;;;;;;;;;;;;;;;;5069625;28;4445;-70
2023/06/28 08:56:56;;;;;;;;;;;;;;;;;;5067541;28;5031;-69
2023/06/28 08:59:21;;;;;;;;;;;;;;;;;;5080459;28;4721;-74
2023/06/28 09:01:47;;;;;;;;;;;;;;;;;;5074696;28;3164;-69
2023/06/28 09:04:12;;;;;;;;;;;;;;;;;;5082689;28;4862;-64
2023/06/28 09:06:37;;;;;;;;;;;;;;;;;;5078578;28;5075;-63
2023/06/28 09:09:03;;;;;;;;;;;;;;;;;;5085346;28;4939;-64
2023/06/28 09:11:28;;;;;;;;;;;;;;;;;;5082568;28;5035;-63
2023/06/28 09:13:53;;;;;;;;;;;;;;;;;;5064817;28;3203;-65
2023/06/28 09:16:19;;;;;;;;;;;;;;;;;;5088926;28;5539;-69
2023/06/28 09:18:44;;;;;;;;;;;;;;;;;;5063478;28;4893;-69
2023/06/28 09:21:09;;;;;;;;;;;;;;;;;;5065786;28;4441;-69
2023/06/28 09:23:34;;;;;;;;;;;;;;;;;;5047099;28;5032;-70
2023/06/28 09:26:00;;;;;;;;;;;;;;;;;;5041024;28;5039;-69
2023/06/28 09:28:34;;;;;;;;;;;;;;;;;;5057565;28;4929;-69
2023/06/28 09:31:00;;;;;;;;;;;;;;;;;;5079914;28;4444;-71
2023/06/28 09:33:25;;;;;;;;;;;;;;;;;;5078826;28;5508;-69
2023/06/28 09:35:55;;;;;;;;;;;;;;;;;;5070850;28;5062;-71
2023/06/28 09:38:21;;;;;;;;;;;;;;;;;;5078679;28;4542;-65
2023/06/28 09:40:52;;;;;;;;;;;;;;;;;;5081690;28;3000;-68
2023/06/28 09:43:17;;;;;;;;;;;;;;;;;;5056811;28;4991;-70
2023/06/28 09:45:43;;;;;;;;;;;;;;;;;;5044741;28;4942;-69
2023/06/28 09:48:08;;;;;;;;;;;;;;;;;;5085859;28;6382;-68
2023/06/28 09:50:43;;;;;;;;;;;;;;;;;;5086734;28;5125;-70
2023/06/28 09:53:09;;;;;;;;;;;;;;;;;;5081833;28;3407;-70
2023/06/28 09:55:36;;;;;;;;;;;;;;;;;;5085587;28;5035;-71
2023/06/28 09:58:01;;;;;;;;;;;;;;;;;;5082748;28;4969;-70
2023/06/28 10:00:27;;;;;;;;;;;;;;;;;;5059865;28;5161;-70
2023/06/28 10:02:52;;;;;;;;;;;;;;;;;;5063985;28;5039;-69
2023/06/28 10:05:18;;;;;;;;;;;;;;;;;;5067759;28;4542;-70
2023/06/28 10:07:43;;;;;;;;;;;;;;;;;;5069298;28;3191;-70
2023/06/28 10:10:08;;;;;;;;;;;;;;;;;;5065763;28;4411;-70
2023/06/28 10:12:34;;;;;;;;;;;;;;;;;;5085943;28;5040;-70
2023/06/28 10:15:01;;;;;;;;;;;;;;;;;;5065549;28;4534;-70
2023/06/28 10:17:28;;;;;;;;;;;;;;;;;;5075324;28;5961;-70
2023/06/28 10:19:53;;;;;;;;;;;;;;;;;;5076462;28;3180;-70
2023/06/28 10:22:19;;;;;;;;;;;;;;;;;;5060733;28;4864;-70
2023/06/28 10:24:44;;;;;;;;;;;;;;;;;;5068053;28;5102;-71
2023/06/28 10:27:09;;;;;;;;;;;;;;;;;;5060750;28;5129;-69
2023/06/28 10:29:34;;;;;;;;;;;;;;;;;;5080912;28;5063;-69
2023/06/28 10:32:00;;;;;;;;;;;;;;;;;;5083966;28;1989;-69
2023/06/28 10:34:25;;;;;;;;;;;;;;;;;;5083061;28;4833;-70
2023/06/28 10:36:50;;;;;;;;;;;;;;;;;;5068381;28;5055;-69
2023/06/28 10:39:16;;;;;;;;;;;;;;;;;;5084690;28;4884;-70
2023/06/28 10:41:41;;;;;;;;;;;;;;;;;;5064287;28;4978;-67
2023/06/28 10:44:06;;;;;;;;;;;;;;;;;;5067154;28;3315;-68
2023/06/28 10:46:32;;;;;;;;;;;;;;;;;;5071719;28;4650;-68
2023/06/28 10:48:59;;;;;;;;;;;;;;;;;;5081927;28;4457;-68
2023/06/28 10:51:32;;;;;;;;;;;;;;;;;;5082960;28;4843;-69
2023/06/28 10:54:13;;;;;;;;;;;;;;;;;;5058714;28;4435;-68
2023/06/28 10:56:41;;;;;;;;;;;;;;;;;;5077971;28;4993;-68
2023/06/28 10:59:06;;;;;;;;;;;;;;;;;;5081166;28;3413;-69
2023/06/28 11:01:35;;;;;;;;;;;;;;;;;;5083008;28;4878;-69
2023/06/28 11:04:26;;;;;;;;;;;;;;;;;;5080379;28;5092;-69
2023/06/28 11:07:18;;;;;;;;;;;;;;;;;;5076072;28;4946;-69
2023/06/28 11:10:02;;;;;;;;;;;;;;;;;;5077305;28;4977;-68
2023/06/28 11:12:27;;;;;;;;;;;;;;;;;;5072837;28;4840;-69
2023/06/28 11:15:06;;;;;;;;;;;;;;;;;;5078491;28;4855;-68
2023/06/28 11:17:31;;;;;;;;;;;;;;;;;;5073117;28;5521;-68
2023/06/28 11:20:06;;;;;;;;;;;;;;;;;;5075241;28;1218;-68
2023/06/28 11:22:50;;;;;;;;;;;;;;;;;;5071050;28;5064;-69
2023/06/28 11:25:16;;;;;;;;;;;;;;;;;;5084374;28;5045;-68
2023/06/28 11:27:41;;;;;;;;;;;;;;;;;;5086364;28;5025;-69
2023/06/28 11:30:07;;;;;;;;;;;;;;;;;;5085714;28;4971;-69
2023/06/28 11:32:32;;;;;;;;;;;;;;;;;;5072230;28;5167;-68
2023/06/28 11:34:58;;;;;;;;;;;;;;;;;;5066672;28;1138;-64
2023/06/28 11:37:24;;;;;;;;;;;;;;;;;;5092669;28;4908;-66
2023/06/28 11:39:49;;;;;;;;;;;;;;;;;;5093884;28;4929;-66
2023/06/28 11:42:15;;;;;;;;;;;;;;;;;;5088397;28;4511;-65
2023/06/28 11:44:47;;;;;;;;;;;;;;;;;;5088600;28;5058;-66
2023/06/28 11:47:12;;;;;;;;;;;;;;;;;;5077684;28;1372;-66
2023/06/28 11:49:37;;;;;;;;;;;;;;;;;;5083097;28;5032;-66
2023/06/28 11:52:02;;;;;;;;;;;;;;;;;;5104217;28;5113;-66
2023/06/28 11:54:30;;;;;;;;;;;;;;;;;;5084113;28;4889;-66
2023/06/28 11:56:56;;;;;;;;;;;;;;;;;;5088215;28;5188;-66
2023/06/28 11:59:21;;;;;;;;;;;;;;;;;;5084454;28;5037;-66
2023/06/28 12:01:47;;;;;;;;;;;;;;;;;;5099739;28;1193;-65
2023/06/28 12:04:21;;;;;;;;;;;;;;;;;;5081766;28;4880;-65
2023/06/28 12:06:47;;;;;;;;;;;;;;;;;;5103879;28;4621;-64
2023/06/28 12:09:22;;;;;;;;;;;;;;;;;;5088945;28;5064;-65
2023/06/28 12:11:53;;;;;;;;;;;;;;;;;;5088389;28;5053;-65
2023/06/28 12:14:19;;;;;;;;;;;;;;;;;;5083832;28;5089;-64
2023/06/28 12:16:45;;;;;;;;;;;;;;;;;;5089244;28;1139;-65
2023/06/28 12:19:10;;;;;;;;;;;;;;;;;;5065722;28;5043;-65
2023/06/28 12:21:37;;;;;;;;;;;;;;;;;;5083549;28;4960;-67
2023/06/28 12:24:21;;;;;;;;;;;;;;;;;;5077856;28;5147;-61
2023/06/28 12:26:49;;;;;;;;;;;;;;;;;;5074951;28;5002;-62
2023/06/28 12:29:19;;;;;;;;;;;;;;;;;;5077119;28;5090;-62
2023/06/28 12:31:48;;;;;;;;;;;;;;;;;;5074484;28;3189;-62
2023/06/28 12:34:14;;;;;;;;;;;;;;;;;;5082842;28;5059;-62
2023/06/28 12:36:40;;;;;;;;;;;;;;;;;;5081034;28;4602;-62
2023/06/28 12:39:06;;;;;;;;;;;;;;;;;;5075915;28;4570;-62
2023/06/28 12:41:31;;;;;;;;;;;;;;;;;;5071184;28;5067;-62
2023/06/28 12:43:57;;;;;;;;;;;;;;;;;;5082225;28;2996;-63
2023/06/28 12:46:22;;;;;;;;;;;;;;;;;;5073459;28;4922;-63
2023/06/28 12:48:49;;;;;;;;;;;;;;;;;;5084422;28;4856;-62
2023/06/28 12:51:14;;;;;;;;;;;;;;;;;;5077672;28;5097;-62
2023/06/28 12:53:39;;;;;;;;;;;;;;;;;;5078038;28;4659;-62
2023/06/28 12:56:05;;;;;;;;;;;;;;;;;;5075875;28;3373;-62
2023/06/28 12:58:30;;;;;;;;;;;;;;;;;;5060807;28;5101;-62
2023/06/28 13:00:55;;;;;;;;;;;;;;;;;;5082132;28;4997;-62
2023/06/28 13:03:21;;;;;;;;;;;;;;;;;;5069172;28;4628;-62
2023/06/28 13:05:47;;;;;;;;;;;;;;;;;;5078960;28;5172;-63
2023/06/28 13:08:12;;;;;;;;;;;;;;;;;;5077030;28;3208;-62
2023/06/28 13:10:37;;;;;;;;;;;;;;;;;;5083370;28;4899;-62
2023/06/28 13:13:03;;;;;;;;;;;;;;;;;;5066496;28;5143;-62
2023/06/28 13:15:28;;;;;;;;;;;;;;;;;;5081232;28;4665;-62
2023/06/28 13:17:54;;;;;;;;;;;;;;;;;;5075638;28;4482;-62
2023/06/28 13:20:19;;;;;;;;;;;;;;;;;;5072056;28;4912;-62
2023/06/28 13:22:44;;;;;;;;;;;;;;;;;;5067413;28;2951;-63
2023/06/28 13:25:10;;;;;;;;;;;;;;;;;;5082627;28;5028;-62
2023/06/28 13:27:35;;;;;;;;;;;;;;;;;;5073946;28;5124;-63
2023/06/28 13:30:00;;;;;;;;;;;;;;;;;;5076889;28;5131;-63
2023/06/28 13:32:25;;;;;;;;;;;;;;;;;;5089225;28;5178;-63
2023/06/28 13:34:51;;;;;;;;;;;;;;;;;;5082803;28;2288;-63
2023/06/28 13:37:16;;;;;;;;;;;;;;;;;;5086308;28;4437;-63
2023/06/28 13:39:41;;;;;;;;;;;;;;;;;;5071753;28;5046;-63
2023/06/28 13:42:06;;;;;;;;;;;;;;;;;;5076847;28;4473;-62
2023/06/28 13:44:32;;;;;;;;;;;;;;;;;;5082965;28;5125;-62
2023/06/28 13:46:57;;;;;;;;;;;;;;;;;;5074857;28;1061;-63
2023/06/28 13:49:22;;;;;;;;;;;;;;;;;;5080708;28;4927;-62
2023/06/28 13:51:48;;;;;;;;;;;;;;;;;;5080415;28;5033;-73
2023/06/28 13:54:13;;;;;;;;;;;;;;;;;;5084948;28;5041;-71
2023/06/28 13:56:38;;;;;;;;;;;;;;;;;;5077938;28;4973;-71
2023/06/28 13:59:03;;;;;;;;;;;;;;;;;;5079776;28;2844;-77
2023/06/28 14:01:28;;;;;;;;;;;;;;;;;;5081792;28;4947;-60
2023/06/28 14:03:54;;;;;;;;;;;;;;;;;;5075418;28;5171;-60
2023/06/28 14:06:19;;;;;;;;;;;;;;;;;;5075031;28;5140;-67
2023/06/28 14:08:44;;;;;;;;;;;;;;;;;;5081088;28;5371;-63
2023/06/28 14:11:10;;;;;;;;;;;;;;;;;;5075661;28;3509;-64
2023/06/28 14:13:35;;;;;;;;;;;;;;;;;;5064082;28;4966;-62
2023/06/28 14:16:00;;;;;;;;;;;;;;;;;;5062212;28;4986;-62
2023/06/28 14:18:25;;;;;;;;;;;;;;;;;;5081177;28;4889;-62
2023/06/28 14:20:51;;;;;;;;;;;;;;;;;;5074301;28;5066;-62
2023/06/28 14:23:16;;;;;;;;;;;;;;;;;;5068793;28;5112;-63
2023/06/28 14:25:41;;;;;;;;;;;;;;;;;;5076795;28;4879;-62
2023/06/28 14:28:06;;;;;;;;;;;;;;;;;;5080865;28;5188;-63
2023/06/28 14:30:32;;;;;;;;;;;;;;;;;;5080342;28;4434;-63
2023/06/28 14:32:57;;;;;;;;;;;;;;;;;;5089740;28;4490;-65
2023/06/28 14:35:22;;;;;;;;;;;;;;;;;;5065668;28;4621;-66
2023/06/28 14:37:48;;;;;;;;;;;;;;;;;;5070442;28;3014;-61
2023/06/28 14:40:14;;;;;;;;;;;;;;;;;;5087614;28;4980;-61
2023/06/28 14:42:39;;;;;;;;;;;;;;;;;;5073954;28;4450;-63
2023/06/28 14:45:07;;;;;;;;;;;;;;;;;;5066810;28;4920;-63
2023/06/28 14:47:32;;;;;;;;;;;;;;;;;;5081128;28;5140;-64
2023/06/28 14:49:58;;;;;;;;;;;;;;;;;;5079327;28;3359;-64
2023/06/28 14:52:23;;;;;;;;;;;;;;;;;;5080979;28;4536;-64
2023/06/28 14:54:48;;;;;;;;;;;;;;;;;;5087438;28;4841;-64
2023/06/28 14:57:14;;;;;;;;;;;;;;;;;;5084009;28;4475;-64
2023/06/28 14:59:39;;;;;;;;;;;;;;;;;;5072289;28;5034;-68
2023/06/28 15:02:04;;;;;;;;;;;;;;;;;;5067832;28;3403;-68
2023/06/28 15:04:29;;;;;;;;;;;;;;;;;;5075019;28;4855;-68
2023/06/28 15:06:55;;;;;;;;;;;;;;;;;;5075060;28;5152;-68
2023/06/28 15:09:20;;;;;;;;;;;;;;;;;;5083396;28;4420;-70
2023/06/28 15:11:45;;;;;;;;;;;;;;;;;;5050261;28;5115;-69
2023/06/28 15:14:11;;;;;;;;;;;;;;;;;;5083755;28;3297;-69
2023/06/28 15:16:36;;;;;;;;;;;;;;;;;;5082340;28;4971;-69
2023/06/28 15:19:03;;;;;;;;;;;;;;;;;;5078814;28;4963;-67
2023/06/28 15:21:28;;;;;;;;;;;;;;;;;;5080748;28;4641;-67
2023/06/28 15:23:53;;;;;;;;;;;;;;;;;;5076943;28;5073;-67
2023/06/28 15:26:19;;;;;;;;;;;;;;;;;;5084558;28;4501;-68
2023/06/28 15:28:44;;;;;;;;;;;;;;;;;;5067956;28;3405;-69
2023/06/28 15:31:09;;;;;;;;;;;;;;;;;;5073082;28;5016;-73
2023/06/28 15:33:34;;;;;;;;;;;;;;;;;;5084773;28;5367;-70
2023/06/28 15:35:59;;;;;;;;;;;;;;;;;;5059218;28;5128;-67
2023/06/28 15:38:25;;;;;;;;;;;;;;;;;;5082433;28;5035;-67
2023/06/28 15:40:50;;;;;;;;;;;;;;;;;;5085278;28;2079;-73
2023/06/28 15:43:16;;;;;;;;;;;;;;;;;;5081457;28;4929;-68
2023/06/28 15:45:41;;;;;;;;;;;;;;;;;;5074984;28;5095;-67
2023/06/28 15:48:06;;;;;;;;;;;;;;;;;;5076610;28;5105;-65
2023/06/28 15:50:31;;;;;;;;;;;;;;;;;;5075737;28;4527;-64
2023/06/28 15:52:57;;;;;;;;;;;;;;;;;;5074225;28;3210;-68
2023/06/28 15:55:23;;;;;;;;;;;;;;;;;;5072586;28;4619;-65
2023/06/28 15:57:48;;;;;;;;;;;;;;;;;;5082451;28;5106;-71
2023/06/28 16:00:14;;;;;;;;;;;;;;;;;;5078593;28;4664;-69
2023/06/28 16:02:39;;;;;;;;;;;;;;;;;;5073134;28;4944;-64
2023/06/28 16:05:04;;;;;;;;;;;;;;;;;;5087955;28;1017;-67
2023/06/28 16:07:29;;;;;;;;;;;;;;;;;;5086516;28;5276;-67
2023/06/28 16:09:55;;;;;;;;;;;;;;;;;;5080378;28;5148;-70
2023/06/28 16:12:20;;;;;;;;;;;;;;;;;;5087406;28;5011;-71
2023/06/28 16:14:45;;;;;;;;;;;;;;;;;;5080943;28;5267;-68
2023/06/28 16:17:10;;;;;;;;;;;;;;;;;;5076217;28;1097;-71
2023/06/28 16:19:36;;;;;;;;;;;;;;;;;;5082819;28;4897;-66
2023/06/28 16:22:01;;;;;;;;;;;;;;;;;;5083713;28;4441;-68
2023/06/28 16:24:27;;;;;;;;;;;;;;;;;;5064902;28;4922;-68
2023/06/28 16:26:52;;;;;;;;;;;;;;;;;;5078412;28;4961;-72
2023/06/28 16:29:18;;;;;;;;;;;;;;;;;;5069048;28;5041;-71
2023/06/28 16:31:43;;;;;;;;;;;;;;;;;;5084874;28;1913;-67
2023/06/28 16:34:08;;;;;;;;;;;;;;;;;;5078499;28;5075;-67
2023/06/28 16:36:33;;;;;;;;;;;;;;;;;;5088334;28;4624;-71
2023/06/28 16:38:59;;;;;;;;;;;;;;;;;;5088644;28;5013;-74
2023/06/28 16:41:24;;;;;;;;;;;;;;;;;;5069798;28;4960;-72
2023/06/28 16:43:49;;;;;;;;;;;;;;;;;;5083444;28;2208;-72
2023/06/28 16:46:15;;;;;;;;;;;;;;;;;;5079842;28;4831;-73
2023/06/28 16:48:41;;;;;;;;;;;;;;;;;;5069929;28;4918;-74
2023/06/28 16:51:09;;;;;;;;;;;;;;;;;;5086633;28;5091;-74
2023/06/28 16:53:34;;;;;;;;;;;;;;;;;;5083233;28;5055;-72